createdAt,value
2019-04-01T00:00:56.625Z,0.00
2019-04-01T00:01:56.611Z,0.00
2019-04-01T00:02:56.604Z,0.00
2019-04-01T00:03:56.596Z,0.00
2019-04-01T00:04:56.595Z,0.00
2019-04-01T00:05:56.585Z,0.00
2019-04-01T00:06:56.593Z,0.00
2019-04-01T00:07:56.772Z,0.00
2019-04-01T00:08:56.589Z,0.00
2019-04-01T00:09:56.564Z,0.00
2019-04-01T00:10:56.561Z,0.00
2019-04-01T00:11:56.551Z,0.00
2019-04-01T00:12:56.537Z,0.00
2019-04-01T00:13:56.742Z,0.00
2019-04-01T00:14:56.530Z,0.00
2019-04-01T00:15:56.519Z,0.00
2019-04-01T00:16:56.527Z,0.00
2019-04-01T00:17:56.511Z,0.00
2019-04-01T00:19:03.101Z,0.00
2019-04-01T00:19:56.497Z,0.00
2019-04-01T00:20:56.693Z,0.00
2019-04-01T00:21:56.502Z,0.00
2019-04-01T00:22:56.527Z,0.00
2019-04-01T00:23:56.488Z,0.00
2019-04-01T00:24:56.693Z,0.00
2019-04-01T00:25:56.665Z,0.00
2019-04-01T00:26:56.456Z,0.00
2019-04-01T00:27:56.456Z,0.00
2019-04-01T00:28:56.440Z,0.00
2019-04-01T00:29:56.443Z,0.00
2019-04-01T00:30:56.441Z,0.00
2019-04-01T00:31:56.416Z,0.00
2019-04-01T00:32:56.436Z,0.00
2019-04-01T00:33:56.405Z,0.00
2019-04-01T00:34:56.406Z,0.00
2019-04-01T00:35:56.397Z,0.00
2019-04-01T00:36:56.389Z,0.00
2019-04-01T00:37:56.376Z,0.00
2019-04-01T00:38:56.574Z,0.00
2019-04-01T00:39:56.373Z,0.00
2019-04-01T00:40:56.357Z,0.00
2019-04-01T00:41:56.588Z,0.00
2019-04-01T00:42:56.371Z,0.00
2019-04-01T00:43:56.348Z,0.00
2019-04-01T00:44:56.336Z,0.00
2019-04-01T00:45:56.357Z,0.00
2019-04-01T00:46:56.352Z,0.00
2019-04-01T00:47:56.325Z,0.00
2019-04-01T00:48:56.510Z,0.00
2019-04-01T00:49:56.334Z,0.00
2019-04-01T00:50:56.294Z,0.00
2019-04-01T00:51:56.288Z,0.00
2019-04-01T00:52:56.293Z,0.00
2019-04-01T00:53:56.292Z,0.00
2019-04-01T00:54:56.480Z,0.00
2019-04-01T00:55:56.268Z,0.00
2019-04-01T00:56:56.268Z,0.00
2019-04-01T00:57:56.250Z,0.00
2019-04-01T00:58:56.239Z,0.00
2019-04-01T00:59:56.441Z,0.00
2019-04-01T01:00:56.431Z,0.00
2019-04-01T01:01:56.223Z,0.00
2019-04-01T01:02:56.252Z,0.00
2019-04-01T01:03:56.212Z,0.00
2019-04-01T01:04:56.213Z,0.00
2019-04-01T01:05:56.273Z,0.00
2019-04-01T01:06:56.406Z,0.00
2019-04-01T01:07:56.404Z,0.00
2019-04-01T01:08:56.200Z,0.00
2019-04-01T01:09:56.388Z,0.00
2019-04-01T01:10:56.163Z,0.00
2019-04-01T01:11:56.187Z,0.00
2019-04-01T01:12:56.152Z,0.00
2019-04-01T01:13:56.359Z,0.00
2019-04-01T01:14:56.341Z,0.00
2019-04-01T01:15:56.133Z,0.00
2019-04-01T01:16:56.128Z,0.00
2019-04-01T01:17:56.123Z,0.00
2019-04-01T01:18:56.113Z,0.00
2019-04-01T01:19:56.100Z,0.00
2019-04-01T01:20:56.097Z,0.00
2019-04-01T01:21:56.089Z,0.00
2019-04-01T01:22:56.096Z,0.00
2019-04-01T01:23:56.071Z,0.00
2019-04-01T01:24:56.067Z,0.00
2019-04-01T01:25:56.054Z,0.00
2019-04-01T01:26:56.065Z,0.00
2019-04-01T01:27:56.050Z,0.00
2019-04-01T01:28:56.035Z,0.00
2019-04-01T01:29:56.232Z,0.00
2019-04-01T01:30:56.028Z,0.00
2019-04-01T01:31:56.033Z,0.00
2019-04-01T01:32:56.217Z,0.00
2019-04-01T01:33:56.008Z,0.00
2019-04-01T01:34:56.007Z,0.00
2019-04-01T01:35:56.017Z,0.00
2019-04-01T01:36:56.050Z,0.00
2019-04-01T01:37:55.983Z,0.00
2019-04-01T01:38:56.199Z,0.00
2019-04-01T01:39:55.991Z,0.00
2019-04-01T01:40:55.966Z,0.00
2019-04-01T01:41:55.958Z,0.00
2019-04-01T01:42:55.941Z,0.00
2019-04-01T01:43:55.930Z,0.00
2019-04-01T01:44:55.931Z,0.00
2019-04-01T01:45:55.918Z,0.00
2019-04-01T01:46:55.916Z,0.00
2019-04-01T01:47:55.907Z,0.00
2019-04-01T01:48:55.905Z,0.00
2019-04-01T01:49:55.892Z,0.00
2019-04-01T01:50:55.878Z,0.00
2019-04-01T01:51:56.081Z,0.00
2019-04-01T01:52:55.866Z,0.00
2019-04-01T01:53:56.068Z,0.00
2019-04-01T01:54:55.862Z,0.00
2019-04-01T01:55:55.858Z,0.00
2019-04-01T01:56:55.838Z,0.00
2019-04-01T01:57:56.034Z,0.00
2019-04-01T01:58:56.034Z,0.00
2019-04-01T01:59:55.842Z,0.00
2019-04-01T02:00:56.018Z,0.00
2019-04-01T02:01:55.810Z,0.00
2019-04-01T02:02:55.801Z,0.00
2019-04-01T02:03:55.997Z,0.00
2019-04-01T02:04:55.782Z,0.00
2019-04-01T02:05:55.801Z,0.00
2019-04-01T02:06:55.968Z,0.00
2019-04-01T02:07:55.764Z,0.00
2019-04-01T02:08:55.768Z,0.00
2019-04-01T02:09:55.955Z,0.00
2019-04-01T02:10:55.741Z,0.00
2019-04-01T02:11:55.938Z,0.00
2019-04-01T02:12:55.927Z,0.00
2019-04-01T02:13:55.723Z,0.00
2019-04-01T02:14:55.726Z,0.00
2019-04-01T02:15:55.722Z,0.00
2019-04-01T02:16:55.697Z,0.00
2019-04-01T02:17:55.697Z,0.00
2019-04-01T02:18:55.684Z,0.00
2019-04-01T02:19:55.687Z,0.00
2019-04-01T02:20:55.873Z,0.00
2019-04-01T02:21:55.672Z,0.00
2019-04-01T02:22:55.651Z,0.00
2019-04-01T02:23:55.648Z,0.00
2019-04-01T02:24:55.653Z,0.00
2019-04-01T02:25:55.631Z,0.00
2019-04-01T02:26:55.632Z,0.00
2019-04-01T02:27:55.621Z,0.00
2019-04-01T02:28:55.811Z,0.00
2019-04-01T02:29:55.810Z,0.00
2019-04-01T02:30:55.608Z,0.00
2019-04-01T02:31:55.610Z,0.00
2019-04-01T02:32:55.590Z,0.00
2019-04-01T02:33:55.582Z,0.00
2019-04-01T02:34:55.578Z,0.00
2019-04-01T02:35:55.563Z,0.00
2019-04-01T02:36:55.565Z,0.00
2019-04-01T02:37:55.783Z,0.00
2019-04-01T02:38:55.564Z,0.00
2019-04-01T02:39:55.540Z,0.00
2019-04-01T02:40:55.530Z,0.00
2019-04-01T02:41:55.522Z,0.00
2019-04-01T02:42:55.528Z,0.00
2019-04-01T02:43:55.508Z,0.00
2019-04-01T02:44:55.501Z,0.00
2019-04-01T02:45:55.494Z,0.00
2019-04-01T02:46:55.501Z,0.00
2019-04-01T02:47:55.495Z,0.00
2019-04-01T02:48:55.475Z,0.00
2019-04-01T02:49:55.471Z,0.00
2019-04-01T02:50:55.463Z,0.00
2019-04-01T02:51:55.452Z,0.00
2019-04-01T02:52:55.440Z,0.00
2019-04-01T02:53:55.432Z,0.00
2019-04-01T02:54:55.429Z,0.00
2019-04-01T02:55:55.424Z,0.00
2019-04-01T02:56:55.492Z,0.00
2019-04-01T02:57:55.451Z,0.00
2019-04-01T02:58:55.404Z,0.00
2019-04-01T02:59:55.390Z,0.00
2019-04-01T03:00:55.414Z,0.00
2019-04-01T03:01:55.375Z,0.00
2019-04-01T03:02:55.390Z,0.00
2019-04-01T03:03:55.359Z,0.00
2019-04-01T03:04:55.363Z,0.00
2019-04-01T03:05:55.372Z,0.00
2019-04-01T03:06:55.359Z,0.00
2019-04-01T03:07:55.337Z,0.00
2019-04-01T03:08:55.326Z,0.00
2019-04-01T03:09:55.313Z,0.00
2019-04-01T03:10:55.327Z,0.00
2019-04-01T03:11:55.310Z,0.00
2019-04-01T03:12:55.305Z,0.00
2019-04-01T03:13:55.290Z,0.00
2019-04-01T03:14:55.298Z,0.00
2019-04-01T03:15:55.478Z,0.00
2019-04-01T03:16:55.303Z,0.00
2019-04-01T03:17:55.257Z,0.00
2019-04-01T03:18:55.256Z,0.00
2019-04-01T03:19:55.262Z,0.00
2019-04-01T03:20:55.235Z,0.00
2019-04-01T03:21:55.230Z,0.00
2019-04-01T03:22:55.425Z,0.00
2019-04-01T03:23:55.228Z,0.00
2019-04-01T03:24:55.209Z,0.00
2019-04-01T03:25:55.218Z,0.00
2019-04-01T03:26:55.204Z,0.00
2019-04-01T03:27:55.207Z,0.00
2019-04-01T03:28:55.180Z,0.00
2019-04-01T03:29:55.396Z,0.00
2019-04-01T03:30:55.369Z,0.00
2019-04-01T03:31:55.202Z,0.00
2019-04-01T03:32:55.223Z,0.00
2019-04-01T03:33:55.151Z,0.00
2019-04-01T03:34:55.129Z,0.00
2019-04-01T03:35:55.137Z,0.00
2019-04-01T03:36:55.136Z,0.00
2019-04-01T03:37:55.123Z,0.00
2019-04-01T03:38:55.314Z,0.00
2019-04-01T03:39:55.109Z,0.00
2019-04-01T03:40:55.095Z,0.00
2019-04-01T03:41:55.292Z,0.00
2019-04-01T03:42:55.115Z,0.00
2019-04-01T03:43:55.212Z,0.00
2019-04-01T03:44:55.636Z,0.00
2019-04-01T03:45:55.254Z,0.00
2019-04-01T03:46:55.065Z,0.00
2019-04-01T03:47:55.045Z,0.00
2019-04-01T03:48:55.037Z,0.00
2019-04-01T03:49:55.054Z,0.00
2019-04-01T03:50:55.016Z,0.00
2019-04-01T03:51:55.004Z,0.00
2019-04-01T03:52:55.006Z,0.00
2019-04-01T03:53:55.199Z,0.00
2019-04-01T03:54:55.191Z,0.00
2019-04-01T03:55:54.985Z,0.00
2019-04-01T03:56:54.968Z,0.00
2019-04-01T03:57:54.961Z,0.00
2019-04-01T03:58:54.955Z,0.00
2019-04-01T03:59:54.946Z,0.00
2019-04-01T04:00:54.939Z,0.00
2019-04-01T04:01:54.933Z,0.00
2019-04-01T04:02:54.928Z,0.00
2019-04-01T04:03:54.913Z,0.00
2019-04-01T04:04:54.924Z,0.00
2019-04-01T04:05:54.924Z,0.00
2019-04-01T04:06:54.902Z,0.00
2019-04-01T04:07:55.098Z,0.00
2019-04-01T04:08:54.890Z,0.00
2019-04-01T04:09:54.873Z,0.00
2019-04-01T04:10:54.878Z,0.00
2019-04-01T04:11:54.875Z,0.00
2019-04-01T04:12:54.865Z,0.00
2019-04-01T04:13:54.879Z,0.00
2019-04-01T04:14:54.842Z,0.00
2019-04-01T04:15:54.838Z,0.00
2019-04-01T04:16:54.821Z,0.00
2019-04-01T04:17:54.851Z,0.00
2019-04-01T04:18:54.808Z,0.00
2019-04-01T04:19:54.804Z,0.00
2019-04-01T04:20:54.787Z,0.00
2019-04-01T04:21:54.814Z,0.00
2019-04-01T04:22:54.814Z,0.00
2019-04-01T04:23:54.769Z,0.00
2019-04-01T04:24:54.968Z,0.00
2019-04-01T04:25:54.769Z,0.00
2019-04-01T04:26:54.768Z,0.00
2019-04-01T04:27:54.753Z,0.00
2019-04-01T04:28:54.733Z,0.00
2019-04-01T04:29:54.935Z,0.00
2019-04-01T04:30:54.724Z,0.00
2019-04-01T04:31:54.718Z,0.00
2019-04-01T04:32:54.906Z,0.00
2019-04-01T04:33:54.929Z,0.00
2019-04-01T04:34:57.190Z,0.00
2019-04-01T04:35:54.697Z,0.00
2019-04-01T04:36:54.670Z,0.00
2019-04-01T04:37:54.876Z,0.00
2019-04-01T04:38:54.661Z,0.00
2019-04-01T04:39:54.852Z,0.00
2019-04-01T04:40:54.643Z,0.00
2019-04-01T04:41:54.642Z,0.00
2019-04-01T04:42:54.643Z,0.00
2019-04-01T04:43:54.833Z,0.00
2019-04-01T04:44:54.623Z,4.00
2019-04-01T04:45:54.605Z,0.00
2019-04-01T04:46:54.814Z,0.00
2019-04-01T04:47:54.598Z,4.00
2019-04-01T04:48:54.792Z,4.00
2019-04-01T04:49:54.571Z,0.00
2019-04-01T04:50:54.568Z,4.00
2019-04-01T04:51:54.560Z,4.00
2019-04-01T04:52:54.578Z,4.00
2019-04-01T04:53:54.544Z,4.00
2019-04-01T04:54:54.743Z,8.00
2019-04-01T04:55:54.734Z,8.00
2019-04-01T04:56:54.522Z,8.00
2019-04-01T04:57:54.718Z,12.00
2019-04-01T04:58:54.539Z,12.00
2019-04-01T04:59:54.549Z,12.00
2019-04-01T05:00:54.503Z,16.00
2019-04-01T05:01:54.507Z,16.00
2019-04-01T05:02:54.511Z,20.00
2019-04-01T05:03:54.472Z,24.00
2019-04-01T05:04:54.462Z,24.00
2019-04-01T05:05:54.453Z,24.00
2019-04-01T05:06:54.462Z,32.00
2019-04-01T05:07:54.442Z,36.00
2019-04-01T05:08:54.430Z,36.00
2019-04-01T05:09:54.637Z,40.00
2019-04-01T05:10:54.408Z,48.00
2019-04-01T05:11:54.407Z,48.00
2019-04-01T05:12:54.395Z,52.00
2019-04-01T05:13:54.397Z,56.00
2019-04-01T05:14:54.395Z,64.00
2019-04-01T05:15:54.391Z,68.00
2019-04-01T05:16:54.365Z,76.00
2019-04-01T05:17:54.351Z,84.00
2019-04-01T05:18:54.360Z,88.00
2019-04-01T05:19:54.364Z,96.00
2019-04-01T05:20:54.356Z,100.00
2019-04-01T05:21:54.331Z,108.00
2019-04-01T05:22:54.331Z,116.00
2019-04-01T05:23:54.538Z,120.00
2019-04-01T05:24:54.523Z,128.00
2019-04-01T05:25:54.306Z,136.00
2019-04-01T05:26:54.498Z,144.00
2019-04-01T05:27:54.276Z,148.00
2019-04-01T05:28:54.265Z,160.00
2019-04-01T05:29:54.287Z,168.00
2019-04-01T05:30:54.249Z,176.00
2019-04-01T05:31:54.242Z,184.00
2019-04-01T05:32:54.235Z,192.00
2019-04-01T05:33:55.618Z,200.00
2019-04-01T05:34:54.216Z,208.00
2019-04-01T05:35:54.219Z,224.00
2019-04-01T05:36:54.203Z,228.00
2019-04-01T05:37:54.210Z,240.00
2019-04-01T05:38:54.194Z,252.00
2019-04-01T05:39:54.381Z,260.00
2019-04-01T05:40:54.376Z,268.00
2019-04-01T05:41:54.166Z,276.00
2019-04-01T05:42:54.361Z,284.00
2019-04-01T05:43:54.150Z,292.00
2019-04-01T05:44:54.137Z,300.00
2019-04-01T05:45:54.127Z,304.00
2019-04-01T05:46:54.118Z,312.00
2019-04-01T05:47:54.113Z,320.00
2019-04-01T05:48:54.105Z,328.00
2019-04-01T05:49:54.093Z,336.00
2019-04-01T05:50:54.105Z,348.00
2019-04-01T05:51:54.288Z,356.00
2019-04-01T05:52:54.082Z,368.00
2019-04-01T05:53:54.071Z,372.00
2019-04-01T05:54:54.266Z,380.00
2019-04-01T05:55:54.049Z,388.00
2019-04-01T05:56:54.065Z,408.00
2019-04-01T05:57:54.058Z,416.00
2019-04-01T05:58:54.040Z,412.00
2019-04-01T05:59:54.020Z,420.00
2019-04-01T06:00:54.037Z,428.00
2019-04-01T06:01:54.221Z,436.00
2019-04-01T06:02:54.009Z,448.00
2019-04-01T06:03:53.987Z,456.00
2019-04-01T06:04:53.990Z,464.00
2019-04-01T06:05:53.969Z,472.00
2019-04-01T06:06:53.976Z,484.00
2019-04-01T06:07:53.959Z,492.00
2019-04-01T06:08:53.945Z,500.00
2019-04-01T06:09:53.954Z,512.00
2019-04-01T06:10:54.142Z,520.00
2019-04-01T06:11:54.134Z,532.00
2019-04-01T06:12:54.133Z,540.00
2019-04-01T06:13:53.925Z,548.00
2019-04-01T06:14:53.905Z,564.00
2019-04-01T06:15:53.898Z,568.00
2019-04-01T06:16:53.884Z,580.00
2019-04-01T06:17:53.885Z,588.00
2019-04-01T06:18:53.872Z,596.00
2019-04-01T06:19:53.864Z,608.00
2019-04-01T06:20:53.864Z,616.00
2019-04-01T06:21:54.082Z,632.00
2019-04-01T06:22:53.877Z,640.00
2019-04-01T06:23:53.838Z,648.00
2019-04-01T06:24:53.829Z,660.00
2019-04-01T06:25:53.821Z,664.00
2019-04-01T06:26:53.811Z,676.00
2019-04-01T06:27:53.828Z,680.00
2019-04-01T06:28:53.807Z,688.00
2019-04-01T06:29:53.804Z,704.00
2019-04-01T06:30:53.987Z,708.00
2019-04-01T06:31:53.773Z,728.00
2019-04-01T06:32:53.776Z,740.00
2019-04-01T06:33:53.773Z,748.00
2019-04-01T06:34:53.760Z,760.00
2019-04-01T06:35:53.743Z,768.00
2019-04-01T06:36:53.737Z,784.00
2019-04-01T06:37:53.744Z,796.00
2019-04-01T06:38:53.719Z,812.00
2019-04-01T06:39:53.724Z,836.00
2019-04-01T06:40:53.710Z,860.00
2019-04-01T06:41:53.718Z,876.00
2019-04-01T06:42:53.704Z,896.00
2019-04-01T06:43:53.689Z,916.00
2019-04-01T06:44:53.682Z,932.00
2019-04-01T06:45:53.680Z,952.00
2019-04-01T06:46:53.677Z,964.00
2019-04-01T06:47:53.658Z,980.00
2019-04-01T06:48:53.646Z,1000.00
2019-04-01T06:49:53.641Z,1016.00
2019-04-01T06:50:53.854Z,1036.00
2019-04-01T06:51:53.631Z,1056.00
2019-04-01T06:52:53.619Z,1088.00
2019-04-01T06:53:53.616Z,1124.00
2019-04-01T06:54:53.612Z,1156.00
2019-04-01T06:55:53.814Z,1196.00
2019-04-01T06:56:53.591Z,1244.00
2019-04-01T06:57:53.587Z,1420.00
2019-04-01T06:58:53.793Z,2020.00
2019-04-01T06:59:53.573Z,11160.00
2019-04-01T07:00:53.564Z,19808.00
2019-04-01T07:01:53.767Z,9828.00
2019-04-01T07:02:53.560Z,4828.00
2019-04-01T07:03:53.548Z,4352.00
2019-04-01T07:04:53.536Z,4496.00
2019-04-01T07:05:53.741Z,4360.00
2019-04-01T07:06:53.524Z,4080.00
2019-04-01T07:07:53.517Z,3476.00
2019-04-01T07:08:53.712Z,2720.00
2019-04-01T07:09:53.539Z,2772.00
2019-04-01T07:10:53.498Z,2452.00
2019-04-01T07:11:53.505Z,2224.00
2019-04-01T07:12:53.708Z,2140.00
2019-04-01T07:13:53.470Z,2076.00
2019-04-01T07:14:53.467Z,2168.00
2019-04-01T07:15:53.465Z,2260.00
2019-04-01T07:16:53.455Z,2440.00
2019-04-01T07:17:53.676Z,2560.00
2019-04-01T07:18:53.451Z,2440.00
2019-04-01T07:19:53.432Z,2488.00
2019-04-01T07:20:53.430Z,2812.00
2019-04-01T07:21:54.603Z,7088.00
2019-04-01T07:22:53.442Z,12444.00
2019-04-01T07:23:53.410Z,22112.00
2019-04-01T07:24:53.609Z,19840.00
2019-04-01T07:25:53.399Z,6472.00
2019-04-01T07:26:53.405Z,4080.00
2019-04-01T07:27:53.385Z,4004.00
2019-04-01T07:28:53.404Z,4072.00
2019-04-01T07:29:53.585Z,3916.00
2019-04-01T07:30:53.453Z,5224.00
2019-04-01T07:31:53.359Z,15296.00
2019-04-01T07:32:53.359Z,16608.00
2019-04-01T07:33:53.562Z,13796.00
2019-04-01T07:34:53.341Z,20512.00
2019-04-01T07:35:53.348Z,21920.00
2019-04-01T07:36:53.327Z,16608.00
2019-04-01T07:37:53.331Z,6844.00
2019-04-01T07:38:53.337Z,5848.00
2019-04-01T07:39:53.334Z,6612.00
2019-04-01T07:40:53.336Z,9020.00
2019-04-01T07:41:53.308Z,16992.00
2019-04-01T07:42:53.499Z,43040.00
2019-04-01T07:43:53.286Z,48576.00
2019-04-01T07:44:53.299Z,42304.00
2019-04-01T07:45:53.300Z,37536.00
2019-04-01T07:46:53.284Z,29792.00
2019-04-01T07:47:53.270Z,29152.00
2019-04-01T07:48:53.257Z,16256.00
2019-04-01T07:49:53.467Z,6572.00
2019-04-01T07:50:53.268Z,13048.00
2019-04-01T07:51:53.248Z,17792.00
2019-04-01T07:52:55.438Z,11884.00
2019-04-01T07:53:53.235Z,12656.00
2019-04-01T07:54:53.229Z,26944.00
2019-04-01T07:55:53.224Z,15872.00
2019-04-01T07:56:53.216Z,5576.00
2019-04-01T07:57:53.212Z,8936.00
2019-04-01T07:58:53.209Z,18560.00
2019-04-01T07:59:56.692Z,21600.00
2019-04-01T08:00:53.212Z,17440.00
2019-04-01T08:01:53.194Z,8268.00
2019-04-01T08:02:53.190Z,5752.00
2019-04-01T08:03:53.180Z,7932.00
2019-04-01T08:04:53.193Z,22048.00
2019-04-01T08:05:53.175Z,40128.00
2019-04-01T08:06:53.177Z,43488.00
2019-04-01T08:07:53.161Z,39136.00
2019-04-01T08:08:53.178Z,34848.00
2019-04-01T08:09:53.177Z,38272.00
2019-04-01T08:10:53.172Z,34784.00
2019-04-01T08:11:53.184Z,29216.00
2019-04-01T08:12:53.150Z,24512.00
2019-04-01T08:13:53.163Z,13940.00
2019-04-01T08:14:53.136Z,14976.00
2019-04-01T08:15:53.149Z,23680.00
2019-04-01T08:16:53.128Z,21216.00
2019-04-01T08:17:53.146Z,18464.00
2019-04-01T08:18:53.125Z,20704.00
2019-04-01T08:19:53.122Z,11748.00
2019-04-01T08:20:53.123Z,13388.00
2019-04-01T08:21:53.126Z,19552.00
2019-04-01T08:22:53.319Z,11244.00
2019-04-01T08:23:53.310Z,34016.00
2019-04-01T08:24:53.118Z,34560.00
2019-04-01T08:25:53.115Z,38528.00
2019-04-01T08:26:53.112Z,35392.00
2019-04-01T08:27:53.304Z,32480.00
2019-04-01T08:28:53.091Z,39040.00
2019-04-01T08:29:53.089Z,22080.00
2019-04-01T08:30:53.100Z,36480.00
2019-04-01T08:31:53.305Z,40416.00
2019-04-01T08:32:53.114Z,30784.00
2019-04-01T08:33:53.091Z,23584.00
2019-04-01T08:34:53.086Z,37408.00
2019-04-01T08:35:53.277Z,36128.00
2019-04-01T08:36:53.288Z,42368.00
2019-04-01T08:37:53.285Z,40768.00
2019-04-01T08:38:55.405Z,37888.00
2019-04-01T08:39:53.067Z,40128.00
2019-04-01T08:40:53.270Z,25760.00
2019-04-01T08:41:53.059Z,7948.00
2019-04-01T08:42:53.055Z,4172.00
2019-04-01T08:43:53.062Z,3548.00
2019-04-01T08:44:53.048Z,3136.00
2019-04-01T08:45:53.061Z,2844.00
2019-04-01T08:46:53.070Z,2568.00
2019-04-01T08:47:53.052Z,2408.00
2019-04-01T08:48:53.052Z,2332.00
2019-04-01T08:49:53.256Z,2228.00
2019-04-01T08:50:53.039Z,2204.00
2019-04-01T08:51:53.036Z,2152.00
2019-04-01T08:52:53.034Z,2160.00
2019-04-01T08:53:53.242Z,1976.00
2019-04-01T08:54:53.235Z,1912.00
2019-04-01T08:56:00.652Z,1856.00
2019-04-01T08:56:53.019Z,1808.00
2019-04-01T08:57:53.014Z,1688.00
2019-04-01T08:58:53.010Z,1608.00
2019-04-01T08:59:56.116Z,1548.00
2019-04-01T09:00:53.210Z,1472.00
2019-04-01T09:01:53.206Z,1416.00
2019-04-01T09:02:52.998Z,1352.00
2019-04-01T09:03:52.992Z,1332.00
2019-04-01T09:04:52.999Z,1316.00
2019-04-01T09:05:53.070Z,1300.00
2019-04-01T09:06:52.989Z,1288.00
2019-04-01T09:07:52.983Z,1284.00
2019-04-01T09:08:52.995Z,1276.00
2019-04-01T09:09:52.969Z,1268.00
2019-04-01T09:10:52.982Z,1260.00
2019-04-01T09:11:52.962Z,1256.00
2019-04-01T09:12:53.188Z,1248.00
2019-04-01T09:13:52.987Z,1240.00
2019-04-01T09:14:52.959Z,1236.00
2019-04-01T09:15:52.954Z,1232.00
2019-04-01T09:16:52.948Z,1236.00
2019-04-01T09:17:52.969Z,1228.00
2019-04-01T09:18:52.937Z,1224.00
2019-04-01T09:19:53.142Z,1212.00
2019-04-01T09:20:52.944Z,1208.00
2019-04-01T09:21:52.954Z,1196.00
2019-04-01T09:22:52.939Z,1188.00
2019-04-01T09:23:52.947Z,1188.00
2019-04-01T09:24:52.916Z,1180.00
2019-04-01T09:25:52.910Z,1172.00
2019-04-01T09:26:53.124Z,1168.00
2019-04-01T09:27:52.935Z,1164.00
2019-04-01T09:28:52.911Z,1156.00
2019-04-01T09:29:52.906Z,1156.00
2019-04-01T09:30:52.904Z,1160.00
2019-04-01T09:31:52.886Z,1148.00
2019-04-01T09:32:52.890Z,1140.00
2019-04-01T09:33:52.895Z,1128.00
2019-04-01T09:34:52.882Z,1116.00
2019-04-01T09:35:52.887Z,1108.00
2019-04-01T09:36:52.862Z,1104.00
2019-04-01T09:37:52.867Z,1096.00
2019-04-01T09:38:52.877Z,1092.00
2019-04-01T09:39:52.857Z,1088.00
2019-04-01T09:40:52.854Z,1084.00
2019-04-01T09:41:52.851Z,1076.00
2019-04-01T09:42:52.865Z,1072.00
2019-04-01T09:43:52.857Z,1068.00
2019-04-01T09:44:52.833Z,1064.00
2019-04-01T09:45:52.839Z,1064.00
2019-04-01T09:46:52.836Z,1064.00
2019-04-01T09:47:52.822Z,1060.00
2019-04-01T09:48:52.822Z,1052.00
2019-04-01T09:49:52.828Z,1052.00
2019-04-01T09:50:52.814Z,1040.00
2019-04-01T09:51:52.819Z,1032.00
2019-04-01T09:52:52.803Z,1032.00
2019-04-01T09:53:52.822Z,1024.00
2019-04-01T09:54:52.807Z,1020.00
2019-04-01T09:55:52.805Z,1008.00
2019-04-01T09:56:52.787Z,1004.00
2019-04-01T09:57:52.794Z,996.00
2019-04-01T09:58:52.778Z,992.00
2019-04-01T09:59:52.779Z,984.00
2019-04-01T10:00:53.360Z,980.00
2019-04-01T10:01:52.763Z,976.00
2019-04-01T10:02:52.768Z,968.00
2019-04-01T10:03:52.768Z,964.00
2019-04-01T10:04:52.758Z,956.00
2019-04-01T10:05:52.765Z,948.00
2019-04-01T10:06:52.751Z,944.00
2019-04-01T10:07:52.945Z,936.00
2019-04-01T10:08:52.937Z,928.00
2019-04-01T10:09:52.739Z,924.00
2019-04-01T10:10:52.763Z,920.00
2019-04-01T10:11:52.943Z,912.00
2019-04-01T10:12:52.736Z,908.00
2019-04-01T10:13:52.728Z,908.00
2019-04-01T10:14:52.917Z,900.00
2019-04-01T10:15:52.916Z,896.00
2019-04-01T10:16:52.907Z,892.00
2019-04-01T10:17:52.724Z,884.00
2019-04-01T10:18:52.702Z,872.00
2019-04-01T10:19:52.694Z,864.00
2019-04-01T10:20:52.688Z,860.00
2019-04-01T10:21:52.685Z,852.00
2019-04-01T10:22:52.686Z,848.00
2019-04-01T10:23:52.690Z,844.00
2019-04-01T10:24:52.685Z,840.00
2019-04-01T10:25:52.679Z,832.00
2019-04-01T10:26:52.683Z,828.00
2019-04-01T10:27:52.662Z,824.00
2019-04-01T10:28:52.768Z,816.00
2019-04-01T10:29:52.665Z,812.00
2019-04-01T10:30:52.646Z,808.00
2019-04-01T10:31:52.650Z,800.00
2019-04-01T10:32:52.669Z,796.00
2019-04-01T10:33:52.652Z,792.00
2019-04-01T10:34:52.841Z,788.00
2019-04-01T10:35:52.837Z,784.00
2019-04-01T10:36:52.839Z,780.00
2019-04-01T10:37:52.627Z,780.00
2019-04-01T10:38:52.616Z,776.00
2019-04-01T10:39:52.727Z,768.00
2019-04-01T10:40:52.614Z,768.00
2019-04-01T10:41:52.817Z,764.00
2019-04-01T10:42:52.617Z,760.00
2019-04-01T10:43:52.607Z,760.00
2019-04-01T10:44:52.592Z,752.00
2019-04-01T10:45:52.793Z,756.00
2019-04-01T10:46:52.593Z,752.00
2019-04-01T10:47:52.669Z,748.00
2019-04-01T10:48:52.625Z,744.00
2019-04-01T10:49:52.829Z,736.00
2019-04-01T10:50:52.663Z,732.00
2019-04-01T10:51:52.667Z,728.00
2019-04-01T10:52:52.585Z,724.00
2019-04-01T10:53:52.638Z,724.00
2019-04-01T10:54:52.609Z,720.00
2019-04-01T10:55:52.595Z,716.00
2019-04-01T10:56:52.620Z,720.00
2019-04-01T10:57:54.053Z,712.00
2019-04-01T10:58:52.763Z,712.00
2019-04-01T10:59:52.536Z,704.00
2019-04-01T11:00:52.590Z,704.00
2019-04-01T11:01:52.547Z,704.00
2019-04-01T11:02:52.541Z,704.00
2019-04-01T11:03:52.684Z,700.00
2019-04-01T11:04:52.569Z,692.00
2019-04-01T11:05:52.586Z,692.00
2019-04-01T11:06:52.521Z,688.00
2019-04-01T11:07:52.519Z,680.00
2019-04-01T11:08:52.539Z,680.00
2019-04-01T11:09:52.494Z,676.00
2019-04-01T11:10:52.492Z,676.00
2019-04-01T11:11:52.506Z,672.00
2019-04-01T11:12:53.878Z,672.00
2019-04-01T11:13:53.904Z,668.00
2019-04-01T11:14:52.472Z,672.00
2019-04-01T11:15:52.472Z,668.00
2019-04-01T11:16:52.485Z,660.00
2019-04-01T11:17:52.881Z,656.00
2019-04-01T11:18:52.665Z,656.00
2019-04-01T11:19:52.670Z,652.00
2019-04-01T11:20:56.542Z,652.00
2019-04-01T11:21:52.746Z,652.00
2019-04-01T11:22:52.700Z,648.00
2019-04-01T11:23:52.442Z,644.00
2019-04-01T11:24:52.433Z,640.00
2019-04-01T11:25:52.427Z,636.00
2019-04-01T11:26:52.450Z,636.00
2019-04-01T11:27:52.429Z,632.00
2019-04-01T11:28:52.419Z,628.00
2019-04-01T11:29:52.416Z,628.00
2019-04-01T11:30:52.454Z,628.00
2019-04-01T11:31:52.434Z,624.00
2019-04-01T11:32:52.447Z,616.00
2019-04-01T11:33:52.420Z,612.00
2019-04-01T11:34:55.864Z,612.00
2019-04-01T11:35:52.394Z,608.00
2019-04-01T11:36:52.391Z,604.00
2019-04-01T11:37:52.438Z,600.00
2019-04-01T11:38:52.410Z,588.00
2019-04-01T11:39:52.417Z,584.00
2019-04-01T11:40:52.376Z,580.00
2019-04-01T11:41:52.425Z,572.00
2019-04-01T11:42:53.075Z,564.00
2019-04-01T11:43:52.717Z,560.00
2019-04-01T11:44:52.648Z,552.00
2019-04-01T11:45:53.231Z,548.00
2019-04-01T11:46:53.406Z,544.00
2019-04-01T11:47:52.349Z,540.00
2019-04-01T11:48:52.378Z,536.00
2019-04-01T11:49:52.544Z,532.00
2019-04-01T11:50:53.816Z,528.00
2019-04-01T11:51:52.545Z,524.00
2019-04-01T11:52:52.391Z,516.00
2019-04-01T11:53:52.307Z,512.00
2019-04-01T11:54:52.318Z,508.00
2019-04-01T11:55:52.306Z,504.00
2019-04-01T11:56:52.506Z,500.00
2019-04-01T11:57:52.316Z,500.00
2019-04-01T11:58:52.286Z,492.00
2019-04-01T11:59:52.487Z,492.00
2019-04-01T12:00:52.286Z,488.00
2019-04-01T12:01:52.289Z,488.00
2019-04-01T12:02:52.279Z,484.00
2019-04-01T12:03:52.274Z,484.00
2019-04-01T12:04:52.734Z,476.00
2019-04-01T12:05:52.671Z,476.00
2019-04-01T12:06:52.269Z,476.00
2019-04-01T12:07:52.261Z,472.00
2019-04-01T12:08:52.475Z,472.00
2019-04-01T12:09:52.534Z,468.00
2019-04-01T12:10:52.256Z,468.00
2019-04-01T12:11:52.241Z,464.00
2019-04-01T12:12:52.231Z,468.00
2019-04-01T12:13:52.231Z,468.00
2019-04-01T12:14:52.244Z,468.00
2019-04-01T12:15:52.219Z,464.00
2019-04-01T12:16:52.231Z,464.00
2019-04-01T12:17:52.219Z,460.00
2019-04-01T12:18:52.415Z,464.00
2019-04-01T12:19:53.272Z,468.00
2019-04-01T12:20:52.214Z,468.00
2019-04-01T12:21:52.203Z,464.00
2019-04-01T12:22:52.648Z,464.00
2019-04-01T12:23:52.215Z,464.00
2019-04-01T12:24:52.214Z,460.00
2019-04-01T12:25:52.184Z,460.00
2019-04-01T12:26:52.179Z,464.00
2019-04-01T12:27:52.171Z,464.00
2019-04-01T12:28:52.371Z,460.00
2019-04-01T12:29:52.165Z,460.00
2019-04-01T12:30:52.410Z,460.00
2019-04-01T12:31:52.364Z,460.00
2019-04-01T12:32:52.151Z,460.00
2019-04-01T12:33:52.148Z,460.00
2019-04-01T12:34:52.147Z,456.00
2019-04-01T12:35:52.144Z,460.00
2019-04-01T12:36:52.143Z,460.00
2019-04-01T12:37:52.137Z,460.00
2019-04-01T12:38:53.849Z,456.00
2019-04-01T12:39:52.135Z,460.00